»·PEaware :: UAL725 KSAN-KSFO

UAL725 :: KSAN-KSFO

FLIGHT INFORMATION

Flight Status: Arrived
Operator:
United Airlines
More flights by this operator :: More flights under this callsign
Pilot: Robert N. (17753)
Aircraft: AIRBUS A320
(A320)
More flights by this aircraft type
Origin: KSAN San Diego Intl-Lindbergh
United States
Destination: KSFO San Francisco Intl
United States
More flights between these airports :: More routes between these airports
Route: +PADRZ2 IKAYE RIZIN SPLNT STOKD SERFR SERFR4
File this flight plan on PilotEdge
Remarks: RMK / SIMBRIEF
Altitude:
(Current/Filed)
36,000ft
Speed:
(Current/Filed)
449kts
Departed: 08-Feb-20 12:46 PM
Arrived: 08-Feb-20 01:51 PM
Distance/Time
Traveled:
388nm/1:05
Distance/Time
To Go:
Arrived

Flight Plot

Page will automatically refresh every two minutes.

Flight plan parsing failed; only flown route is shown


Map Options




Map Legend


Flown Route
Filed Route
Departure Airport
Arrival Airport
Navaid (VOR, NDB)
Fix

Horizontal Profiles

Position Reports

Time Latitude Longitude Heading Altitude Ground
Speed
08-Feb-20 12:16 32.732956 -117.203625 242 29ft 0kts
08-Feb-20 12:17 32.732956 -117.203625 242 29ft 0kts
08-Feb-20 12:18 32.732956 -117.203625 242 29ft 0kts
08-Feb-20 12:19 32.732956 -117.203625 242 29ft 0kts
08-Feb-20 12:20 32.732956 -117.203625 242 29ft 0kts
08-Feb-20 12:21 32.732956 -117.203625 242 29ft 0kts
08-Feb-20 12:22 32.732956 -117.203625 242 29ft 0kts
08-Feb-20 12:23 32.732956 -117.203625 242 29ft 0kts
08-Feb-20 12:24 32.732956 -117.203625 242 29ft 0kts
08-Feb-20 12:25 32.732956 -117.203625 242 29ft 0kts
08-Feb-20 12:26 32.732956 -117.203625 242 29ft 0kts
08-Feb-20 12:27 32.732956 -117.203625 242 29ft 0kts
08-Feb-20 12:28 32.732956 -117.203625 242 29ft 0kts
08-Feb-20 12:29 32.732956 -117.203625 242 29ft 0kts
08-Feb-20 12:30 32.732956 -117.203625 242 29ft 0kts
08-Feb-20 12:31 32.732956 -117.203625 242 29ft 0kts
08-Feb-20 12:32 32.732956 -117.203625 242 29ft 0kts
08-Feb-20 12:33 32.732965 -117.203605 242 29ft 1kts
08-Feb-20 12:34 32.733176 -117.202797 326 29ft 2kts
08-Feb-20 12:35 32.732817 -117.202718 352 29ft 0kts
08-Feb-20 12:36 32.732818 -117.202718 352 29ft 0kts
08-Feb-20 12:37 32.732818 -117.202718 352 29ft 0kts
08-Feb-20 12:38 32.733105 -117.202757 353 29ft 5kts
08-Feb-20 12:39 32.734382 -117.202855 8 29ft 9kts
08-Feb-20 12:40 32.734640 -117.198159 102 29ft 23kts
08-Feb-20 12:41 32.733146 -117.191955 101 29ft 16kts
08-Feb-20 12:42 32.731408 -117.184609 104 29ft 29kts
08-Feb-20 12:43 32.729977 -117.178542 104 29ft 20kts
08-Feb-20 12:44 32.730194 -117.175816 288 29ft 6kts
08-Feb-20 12:45 32.737849 -117.204837 295 1175ft 159kts
08-Feb-20 12:46 32.767285 -117.258830 301 4383ft 237kts
08-Feb-20 12:47 32.807719 -117.331379 305 8258ft 277kts
08-Feb-20 12:48 32.856967 -117.407268 306 11674ft 313kts
08-Feb-20 12:49 32.915361 -117.498014 306 13612ft 374kts
08-Feb-20 12:50 32.979669 -117.598243 305 16489ft 387kts
08-Feb-20 12:51 33.046293 -117.702469 305 19065ft 401kts
08-Feb-20 12:52 33.128766 -117.795785 318 21394ft 417kts
08-Feb-20 12:53 33.216497 -117.888686 313 23426ft 427kts
08-Feb-20 12:54 33.301605 -117.990402 313 25217ft 439kts
08-Feb-20 12:55 33.388733 -118.094646 313 26894ft 448kts
08-Feb-20 12:56 33.477773 -118.201414 312 28560ft 452kts
08-Feb-20 12:57 33.565472 -118.306961 312 30642ft 444kts
08-Feb-20 12:58 33.652339 -118.411891 312 32422ft 444kts
08-Feb-20 12:59 33.739332 -118.517121 311 34168ft 443kts
08-Feb-20 13:00 33.825821 -118.622332 312 35818ft 441kts
08-Feb-20 13:01 33.912239 -118.727518 312 36089ft 441kts
08-Feb-20 13:02 33.998131 -118.832515 312 36097ft 441kts
08-Feb-20 13:03 34.082806 -118.936239 311 36057ft 427kts
08-Feb-20 13:04 34.161585 -119.045019 300 36094ft 431kts
08-Feb-20 13:05 34.224123 -119.168054 299 36097ft 429kts
08-Feb-20 13:06 34.287295 -119.290426 299 36051ft 429kts
08-Feb-20 13:07 34.349939 -119.412833 299 36055ft 428kts
08-Feb-20 13:08 34.413750 -119.534572 306 36055ft 429kts
08-Feb-20 13:09 34.497323 -119.638248 312 36063ft 430kts
08-Feb-20 13:10 34.580932 -119.741677 311 36074ft 430kts
08-Feb-20 13:11 34.664931 -119.845300 311 36113ft 429kts
08-Feb-20 13:12 34.748562 -119.949100 311 36104ft 429kts
08-Feb-20 13:13 34.831950 -120.052779 312 36099ft 429kts
08-Feb-20 13:14 34.915354 -120.156926 312 36032ft 431kts
08-Feb-20 13:15 34.999188 -120.261831 311 36036ft 436kts
08-Feb-20 13:16 35.084219 -120.368449 312 36127ft 438kts
08-Feb-20 13:17 35.173791 -120.469189 315 36117ft 434kts
08-Feb-20 13:18 35.262191 -120.568491 314 36077ft 429kts
08-Feb-20 13:19 35.350004 -120.667380 314 36017ft 428kts
08-Feb-20 13:20 35.437660 -120.766374 314 36027ft 432kts
08-Feb-20 13:21 35.529856 -120.861553 320 36124ft 435kts
08-Feb-20 13:22 35.626641 -120.950925 319 36121ft 433kts
08-Feb-20 13:23 35.722448 -121.040262 320 36064ft 431kts
08-Feb-20 13:24 35.817892 -121.129391 319 36047ft 431kts
08-Feb-20 13:25 35.913356 -121.218860 320 35750ft 430kts
08-Feb-20 13:26 36.008747 -121.308523 319 34957ft 431kts
08-Feb-20 13:27 36.105560 -121.393924 324 32163ft 424kts
08-Feb-20 13:28 36.203740 -121.470162 324 29704ft 411kts
08-Feb-20 13:29 36.301213 -121.546633 324 27026ft 422kts
08-Feb-20 13:30 36.401398 -121.625194 324 24259ft 418kts
08-Feb-20 13:31 36.490252 -121.695127 324 22481ft 362kts
08-Feb-20 13:32 36.573892 -121.761192 324 20963ft 347kts
08-Feb-20 13:33 36.653328 -121.824116 324 19246ft 330kts
08-Feb-20 13:34 36.729140 -121.884273 325 17590ft 316kts
08-Feb-20 13:35 36.816448 -121.915290 344 15796ft 331kts
08-Feb-20 13:36 36.903916 -121.939492 343 14124ft 314kts
08-Feb-20 13:37 36.986161 -121.966163 339 12575ft 297kts
08-Feb-20 13:38 37.061681 -121.995835 339 11458ft 268kts
08-Feb-20 13:39 37.131722 -122.023209 340 10328ft 258kts
08-Feb-20 13:40 37.201996 -122.050718 340 9157ft 270kts
08-Feb-20 13:41 37.272109 -122.078230 340 8076ft 257kts
08-Feb-20 13:42 37.340308 -122.105552 339 6759ft 246kts
08-Feb-20 13:44 37.407323 -122.130391 343 5578ft 248kts
08-Feb-20 13:45 37.473239 -122.152955 342 4818ft 227kts
08-Feb-20 13:46 37.529656 -122.173562 326 4356ft 197kts
08-Feb-20 13:47 37.558468 -122.231594 297 3101ft 171kts
08-Feb-20 13:48 37.577472 -122.276979 295 2417ft 138kts
08-Feb-20 13:49 37.595642 -122.319751 294 705ft 131kts
08-Feb-20 13:50 37.612153 -122.359186 295 54ft 125kts
08-Feb-20 13:51 37.619000 -122.378273 265 27ft 6kts
08-Feb-20 13:52 37.618990 -122.378472 266 27ft 3kts
08-Feb-20 13:53 37.619563 -122.381920 297 27ft 16kts
08-Feb-20 13:54 37.620704 -122.385132 271 27ft 8kts
08-Feb-20 13:55 37.619195 -122.386315 174 27ft 3kts
08-Feb-20 13:56 37.618811 -122.386227 169 27ft 0kts
08-Feb-20 13:57 37.618811 -122.386227 169 27ft 0kts

Navigation Log

Ident Type
Flight plan parsing failed, navigation log unavailable